createdAt,value
2018-12-09T00:01:26.069Z,95232.90
2018-12-09T00:03:58.816Z,95256.12
2018-12-09T00:06:30.752Z,95226.30
2018-12-09T00:09:00.857Z,95234.83
2018-12-09T00:11:31.037Z,95227.61
2018-12-09T00:14:00.956Z,95216.61
2018-12-09T00:16:30.973Z,95226.05
2018-12-09T00:19:00.914Z,95235.45
2018-12-09T00:21:30.955Z,95221.97
2018-12-09T00:24:00.984Z,95224.40
2018-12-09T00:26:30.984Z,95236.58
2018-12-09T00:29:00.907Z,95229.33
2018-12-09T00:31:30.934Z,95229.56
2018-12-09T00:34:00.872Z,95232.89
2018-12-09T00:36:30.813Z,95232.97
2018-12-09T00:39:00.759Z,95219.30
2018-12-09T00:41:30.717Z,95210.71
2018-12-09T00:44:00.680Z,95191.91
2018-12-09T00:46:30.692Z,95186.08
2018-12-09T00:49:00.635Z,95173.00
2018-12-09T00:51:30.956Z,95159.97
2018-12-09T00:54:00.952Z,95142.63
2018-12-09T00:56:30.893Z,95154.23
2018-12-09T00:59:00.804Z,95158.45
2018-12-09T01:01:30.822Z,95163.63
2018-12-09T01:04:00.751Z,95171.00
2018-12-09T01:06:30.754Z,95178.77
2018-12-09T01:09:00.757Z,95179.88
2018-12-09T01:11:33.161Z,95172.05
2018-12-09T01:14:03.080Z,95170.38
2018-12-09T01:16:33.101Z,95197.84
2018-12-09T01:19:03.078Z,95169.09
2018-12-09T01:21:33.048Z,95190.09
2018-12-09T01:24:03.105Z,95192.64
2018-12-09T01:26:34.184Z,95176.14
2018-12-09T01:29:04.368Z,95168.16
2018-12-09T01:31:34.405Z,95176.66
2018-12-09T01:34:04.751Z,95155.39
2018-12-09T01:36:34.749Z,95159.81
2018-12-09T01:39:06.390Z,95175.36
2018-12-09T01:41:36.328Z,95184.06
2018-12-09T01:44:06.328Z,95188.12
2018-12-09T01:46:36.448Z,95172.91
2018-12-09T01:49:06.373Z,95178.19
2018-12-09T01:51:36.485Z,95169.55
2018-12-09T01:54:15.010Z,95180.08
2018-12-09T01:56:45.620Z,95179.64
2018-12-09T01:59:15.737Z,95184.80
2018-12-09T02:01:45.861Z,95176.30
2018-12-09T02:04:16.487Z,95180.25
2018-12-09T02:06:46.588Z,95179.41
2018-12-09T02:09:16.583Z,95198.03
2018-12-09T02:11:46.592Z,95194.67
2018-12-09T02:14:16.561Z,95204.44
2018-12-09T02:16:47.001Z,95182.45
2018-12-09T02:19:23.128Z,95163.19
2018-12-09T02:21:53.380Z,95168.47
2018-12-09T02:24:23.793Z,95175.97
2018-12-09T02:26:53.907Z,95157.47
2018-12-09T02:29:23.933Z,95156.96
2018-12-09T02:31:53.973Z,95141.41
2018-12-09T02:34:24.299Z,95133.80
2018-12-09T02:36:54.364Z,95133.65
2018-12-09T02:39:24.438Z,95138.92
2018-12-09T02:41:54.417Z,95133.95
2018-12-09T02:44:24.717Z,95115.41
2018-12-09T02:46:54.989Z,95115.00
2018-12-09T02:49:24.976Z,95099.21
2018-12-09T02:51:55.020Z,95120.91
2018-12-09T02:54:25.337Z,95138.05
2018-12-09T02:56:55.321Z,95191.68
2018-12-09T02:59:25.379Z,95224.28
2018-12-09T03:01:55.714Z,95231.95
2018-12-09T03:04:26.169Z,95198.12
2018-12-09T03:06:56.134Z,95160.27
2018-12-09T03:09:26.162Z,95134.47
2018-12-09T03:11:56.073Z,95171.88
2018-12-09T03:14:26.226Z,95165.37
2018-12-09T03:16:56.210Z,95170.88
2018-12-09T03:19:26.200Z,95173.11
2018-12-09T03:21:56.243Z,95169.17
2018-12-09T03:27:11.217Z,95156.91
2018-12-09T03:29:41.217Z,95142.09
2018-12-09T03:32:11.359Z,95148.13
2018-12-09T03:34:41.559Z,95149.10
2018-12-09T03:37:11.694Z,95147.83
2018-12-09T03:39:41.634Z,95169.37
2018-12-09T03:42:11.660Z,95156.34
2018-12-09T03:44:42.026Z,95165.90
2018-12-09T03:47:11.991Z,95164.59
2018-12-09T03:49:42.015Z,95181.28
2018-12-09T03:52:12.231Z,95177.83
2018-12-09T03:54:42.731Z,95175.43
2018-12-09T03:57:12.781Z,95176.08
2018-12-09T03:59:42.797Z,95191.82
2018-12-09T04:02:12.833Z,95178.19
2018-12-09T04:04:42.920Z,95182.59
2018-12-09T04:07:12.931Z,95194.77
2018-12-09T04:09:42.950Z,95179.83
2018-12-09T04:12:12.955Z,95175.45
2018-12-09T04:14:42.996Z,95192.48
2018-12-09T04:17:13.096Z,95188.03
2018-12-09T04:19:43.109Z,95186.29
2018-12-09T04:22:13.229Z,95165.77
2018-12-09T04:24:43.218Z,95172.29
2018-12-09T04:27:13.189Z,95191.91
2018-12-09T04:29:43.249Z,95199.00
2018-12-09T04:32:13.232Z,95206.20
2018-12-09T04:34:43.227Z,95202.61
2018-12-09T04:37:13.439Z,95206.73
2018-12-09T04:39:43.477Z,95202.94
2018-12-09T04:42:13.576Z,95202.76
2018-12-09T04:44:43.764Z,95201.16
2018-12-09T04:47:14.041Z,95211.50
2018-12-09T04:49:44.023Z,95222.03
2018-12-09T04:52:14.008Z,95214.08
2018-12-09T04:54:44.152Z,95208.78
2018-12-09T04:57:14.893Z,95213.70
2018-12-09T04:59:49.376Z,95221.27
2018-12-09T05:02:19.349Z,95235.92
2018-12-09T05:04:49.278Z,95232.03
2018-12-09T05:07:19.437Z,95226.16
2018-12-09T05:09:49.413Z,95215.58
2018-12-09T05:12:19.321Z,95222.14
2018-12-09T05:14:49.309Z,95238.14
2018-12-09T05:17:20.194Z,95240.41
2018-12-09T05:19:50.352Z,95220.55
2018-12-09T05:22:20.536Z,95226.62
2018-12-09T05:24:50.573Z,95241.77
2018-12-09T05:27:20.573Z,95229.14
2018-12-09T05:29:50.597Z,95214.99
2018-12-09T05:32:20.648Z,95209.70
2018-12-09T05:34:50.634Z,95219.69
2018-12-09T05:37:21.852Z,95217.78
2018-12-09T05:39:52.240Z,95200.95
2018-12-09T05:42:22.417Z,95217.62
2018-12-09T05:44:52.337Z,95226.39
2018-12-09T05:47:22.253Z,95226.39
2018-12-09T05:49:52.248Z,95206.66
2018-12-09T05:52:22.177Z,95223.78
2018-12-09T05:54:53.141Z,95216.34
2018-12-09T05:57:23.124Z,95214.34
2018-12-09T05:59:53.156Z,95212.28
2018-12-09T06:03:01.112Z,95215.68
2018-12-09T06:05:31.556Z,95229.37
2018-12-09T06:08:01.533Z,95215.08
2018-12-09T06:10:32.690Z,95224.77
2018-12-09T06:13:05.906Z,95216.72
2018-12-09T06:15:35.970Z,95224.53
2018-12-09T06:18:06.245Z,95215.86
2018-12-09T06:20:37.052Z,95234.84
2018-12-09T06:23:07.350Z,95233.08
2018-12-09T06:25:37.354Z,95241.81
2018-12-09T06:28:07.521Z,95236.41
2018-12-09T06:30:37.580Z,95248.62
2018-12-09T06:33:07.912Z,95242.89
2018-12-09T06:35:37.891Z,95259.71
2018-12-09T06:38:08.559Z,95263.09
2018-12-09T06:40:38.588Z,95274.36
2018-12-09T06:43:08.625Z,95276.22
2018-12-09T06:45:38.726Z,95279.62
2018-12-09T06:48:08.801Z,95282.25
2018-12-09T06:50:38.805Z,95287.32
2018-12-09T06:53:09.180Z,95268.31
2018-12-09T06:55:39.208Z,95289.44
2018-12-09T06:58:09.361Z,95283.31
2018-12-09T07:00:39.657Z,95301.64
2018-12-09T07:03:09.869Z,95300.59
2018-12-09T07:05:39.801Z,95314.92
2018-12-09T07:08:09.905Z,95308.44
2018-12-09T07:10:39.951Z,95296.50
2018-12-09T07:13:10.041Z,95305.84
2018-12-09T07:15:40.017Z,95301.00
2018-12-09T07:18:10.013Z,95295.12
2018-12-09T07:20:40.087Z,95289.61
2018-12-09T07:23:10.219Z,95324.70
2018-12-09T07:25:40.233Z,95317.01
2018-12-09T07:28:10.456Z,95336.34
2018-12-09T07:30:40.478Z,95349.63
2018-12-09T07:33:10.869Z,95355.62
2018-12-09T07:38:26.291Z,95364.91
2018-12-09T07:40:57.245Z,95365.64
2018-12-09T07:43:27.130Z,95379.05
2018-12-09T07:45:57.274Z,95364.89
2018-12-09T07:48:27.182Z,95376.69
2018-12-09T07:50:57.189Z,95387.77
2018-12-09T07:53:27.502Z,95396.95
2018-12-09T07:55:57.529Z,95409.00
2018-12-09T07:58:27.547Z,95405.29
2018-12-09T08:00:57.582Z,95416.47
2018-12-09T08:03:27.526Z,95419.64
2018-12-09T08:05:57.712Z,95425.76
2018-12-09T08:08:27.718Z,95432.96
2018-12-09T08:10:57.821Z,95435.16
2018-12-09T08:13:27.762Z,95459.37
2018-12-09T08:15:57.681Z,95445.22
2018-12-09T08:18:27.578Z,95464.45
2018-12-09T08:20:57.641Z,95464.11
2018-12-09T08:23:27.641Z,95467.73
2018-12-09T08:25:57.648Z,95491.08
2018-12-09T08:28:27.645Z,95471.23
2018-12-09T08:30:57.680Z,95464.23
2018-12-09T08:33:27.746Z,95466.70
2018-12-09T08:35:57.949Z,95471.06
2018-12-09T08:38:27.996Z,95462.77
2018-12-09T08:40:57.962Z,95464.23
2018-12-09T08:43:27.959Z,95457.44
2018-12-09T08:45:57.883Z,95471.88
2018-12-09T08:48:27.795Z,95460.20
2018-12-09T08:50:57.808Z,95460.80
2018-12-09T08:53:28.163Z,95435.27
2018-12-09T08:55:58.248Z,95446.17
2018-12-09T08:58:28.840Z,95446.45
2018-12-09T09:01:00.133Z,95432.88
2018-12-09T09:03:30.047Z,95446.36
2018-12-09T09:06:00.177Z,95447.56
2018-12-09T09:08:30.089Z,95446.36
2018-12-09T09:11:00.323Z,95460.13
2018-12-09T09:13:30.316Z,95457.41
2018-12-09T09:16:00.675Z,95453.25
2018-12-09T09:18:30.678Z,95461.38
2018-12-09T09:21:01.751Z,95467.33
2018-12-09T09:23:31.630Z,95479.05
2018-12-09T09:26:01.717Z,95484.35
2018-12-09T09:28:31.842Z,95481.78
2018-12-09T09:31:01.778Z,95503.77
2018-12-09T09:33:31.797Z,95484.89
2018-12-09T09:36:01.842Z,95484.63
2018-12-09T09:38:31.893Z,95475.45
2018-12-09T09:41:03.175Z,95487.34
2018-12-09T09:43:33.084Z,95479.61
2018-12-09T09:46:03.014Z,95460.31
2018-12-09T09:48:33.012Z,95466.87
2018-12-09T09:51:03.505Z,95472.52
2018-12-09T09:53:35.552Z,95479.61
2018-12-09T09:56:05.550Z,95477.38
2018-12-09T09:58:35.537Z,95487.11
2018-12-09T10:01:05.784Z,95475.08
2018-12-09T10:03:35.684Z,95480.04
2018-12-09T10:06:05.813Z,95476.39
2018-12-09T10:08:35.725Z,95482.19
2018-12-09T10:11:06.061Z,95475.44
2018-12-09T10:13:35.981Z,95480.47
2018-12-09T10:16:06.622Z,95490.27
2018-12-09T10:18:37.093Z,95489.57
2018-12-09T10:21:07.045Z,95499.61
2018-12-09T10:23:36.952Z,95502.61
2018-12-09T10:26:07.030Z,95494.27
2018-12-09T10:28:36.933Z,95497.77
2018-12-09T10:31:06.924Z,95498.89
2018-12-09T10:33:36.908Z,95510.00
2018-12-09T10:36:06.912Z,95515.09
2018-12-09T10:38:37.170Z,95506.41
2018-12-09T10:41:07.249Z,95513.27
2018-12-09T10:43:37.158Z,95509.78
2018-12-09T10:46:07.216Z,95509.22
2018-12-09T10:48:37.215Z,95509.70
2018-12-09T10:51:07.217Z,95502.28
2018-12-09T10:53:37.138Z,95510.38
2018-12-09T10:56:07.065Z,95511.64
2018-12-09T10:58:37.084Z,95510.98
2018-12-09T11:04:04.040Z,95512.17
2018-12-09T11:06:35.103Z,95502.17
2018-12-09T11:09:06.936Z,95504.80
2018-12-09T11:11:36.868Z,95509.40
2018-12-09T11:14:06.933Z,95514.25
2018-12-09T11:16:36.989Z,95508.84
2018-12-09T11:19:06.981Z,95503.87
2018-12-09T11:21:36.918Z,95510.31
2018-12-09T11:24:06.913Z,95510.70
2018-12-09T11:26:36.917Z,95496.01
2018-12-09T11:29:06.835Z,95486.45
2018-12-09T11:31:36.769Z,95476.59
2018-12-09T11:34:06.785Z,95489.87
2018-12-09T11:36:36.732Z,95485.71
2018-12-09T11:39:09.317Z,95486.93
2018-12-09T11:41:39.545Z,95485.34
2018-12-09T11:44:09.629Z,95478.15
2018-12-09T11:46:39.625Z,95477.59
2018-12-09T11:49:10.089Z,95479.83
2018-12-09T11:51:40.177Z,95481.92
2018-12-09T11:54:10.110Z,95479.98
2018-12-09T11:56:41.289Z,95483.09
2018-12-09T11:59:12.028Z,95485.14
2018-12-09T12:01:42.040Z,95476.38
2018-12-09T12:04:12.089Z,95471.15
2018-12-09T12:06:42.084Z,95473.00
2018-12-09T12:09:12.156Z,95471.96
2018-12-09T12:11:42.265Z,95470.86
2018-12-09T12:14:12.229Z,95466.66
2018-12-09T12:16:43.217Z,95464.88
2018-12-09T12:19:13.178Z,95456.91
2018-12-09T12:21:43.201Z,95466.49
2018-12-09T12:24:13.254Z,95470.20
2018-12-09T12:26:43.182Z,95468.19
2018-12-09T12:29:13.196Z,95465.59
2018-12-09T12:31:43.139Z,95455.05
2018-12-09T12:34:13.118Z,95439.86
2018-12-09T12:36:43.144Z,95446.22
2018-12-09T12:39:13.065Z,95443.39
2018-12-09T12:41:43.032Z,95441.61
2018-12-09T12:44:13.146Z,95447.73
2018-12-09T12:46:43.229Z,95446.11
2018-12-09T12:49:14.164Z,95459.63
2018-12-09T12:51:44.360Z,95459.08
2018-12-09T12:54:14.397Z,95463.28
2018-12-09T12:56:44.320Z,95445.72
2018-12-09T12:59:14.501Z,95464.03
2018-12-09T13:01:44.596Z,95468.97
2018-12-09T13:04:14.513Z,95467.82
2018-12-09T13:06:45.499Z,95474.59
2018-12-09T13:09:15.500Z,95471.52
2018-12-09T13:11:45.614Z,95474.27
2018-12-09T13:14:15.629Z,95479.06
2018-12-09T13:16:45.640Z,95478.29
2018-12-09T13:19:15.736Z,95475.89
2018-12-09T13:21:45.741Z,95481.78
2018-12-09T13:24:15.765Z,95477.48
2018-12-09T13:26:45.705Z,95472.45
2018-12-09T13:29:15.820Z,95472.13
2018-12-09T13:31:45.713Z,95463.69
2018-12-09T13:34:15.892Z,95452.39
2018-12-09T13:36:45.810Z,95458.80
2018-12-09T13:39:15.809Z,95456.81
2018-12-09T13:41:45.722Z,95465.37
2018-12-09T13:44:15.672Z,95462.17
2018-12-09T13:46:45.629Z,95472.45
2018-12-09T13:49:15.574Z,95470.70
2018-12-09T13:51:45.540Z,95483.00
2018-12-09T13:54:15.526Z,95482.76
2018-12-09T13:56:45.541Z,95484.03
2018-12-09T13:59:15.620Z,95484.30
2018-12-09T14:01:45.621Z,95488.20
2018-12-09T14:04:16.769Z,95483.91
2018-12-09T14:06:46.844Z,95491.87
2018-12-09T14:09:16.821Z,95496.89
2018-12-09T14:11:46.774Z,95494.24
2018-12-09T14:14:16.891Z,95489.47
2018-12-09T14:16:47.017Z,95492.92
2018-12-09T14:19:16.954Z,95500.41
2018-12-09T14:21:46.873Z,95510.05
2018-12-09T14:24:16.857Z,95501.27
2018-12-09T14:26:47.017Z,95506.38
2018-12-09T14:29:17.253Z,95501.58
2018-12-09T14:31:47.802Z,95509.13
2018-12-09T14:34:17.813Z,95513.63
2018-12-09T14:36:47.753Z,95518.24
2018-12-09T14:39:17.841Z,95518.44
2018-12-09T14:41:47.774Z,95511.75
2018-12-09T14:47:05.756Z,95512.81
2018-12-09T14:49:35.858Z,95506.91
2018-12-09T14:52:05.914Z,95509.28
2018-12-09T14:54:36.530Z,95510.47
2018-12-09T14:57:06.602Z,95510.44
2018-12-09T14:59:38.853Z,95524.98
2018-12-09T15:02:08.887Z,95521.05
2018-12-09T15:04:38.826Z,95528.92
2018-12-09T15:07:08.894Z,95537.39
2018-12-09T15:09:38.936Z,95537.05
2018-12-09T15:14:07.340Z,95533.44
2018-12-09T15:16:38.433Z,95537.11
2018-12-09T15:19:08.400Z,95531.63
2018-12-09T15:21:38.345Z,95539.67
2018-12-09T15:24:08.343Z,95542.22
2018-12-09T15:26:38.413Z,95553.00
2018-12-09T15:29:08.505Z,95564.64
2018-12-09T15:31:38.513Z,95566.00
2018-12-09T15:34:08.530Z,95564.53
2018-12-09T15:36:38.636Z,95569.08
2018-12-09T15:39:08.637Z,95561.44
2018-12-09T15:41:38.633Z,95556.69
2018-12-09T15:44:08.604Z,95572.07
2018-12-09T15:46:38.615Z,95575.13
2018-12-09T15:49:08.620Z,95567.41
2018-12-09T15:51:38.608Z,95572.44
2018-12-09T15:54:08.922Z,95584.15
2018-12-09T15:59:32.265Z,95582.83
2018-12-09T16:02:02.713Z,95602.70
2018-12-09T16:04:32.701Z,95599.94
2018-12-09T16:07:02.676Z,95609.99
2018-12-09T16:09:32.724Z,95614.95
2018-12-09T16:12:02.629Z,95603.21
2018-12-09T16:14:32.657Z,95616.92
2018-12-09T16:17:03.054Z,95624.91
2018-12-09T16:19:33.001Z,95632.78
2018-12-09T16:22:02.981Z,95626.37
2018-12-09T16:24:33.024Z,95636.66
2018-12-09T16:27:02.933Z,95635.63
2018-12-09T16:29:32.897Z,95642.84
2018-12-09T16:32:02.804Z,95648.95
2018-12-09T16:34:32.765Z,95650.55
2018-12-09T16:37:02.788Z,95666.95
2018-12-09T16:39:32.828Z,95670.89
2018-12-09T16:42:02.913Z,95671.84
2018-12-09T16:44:33.994Z,95670.81
2018-12-09T16:47:03.973Z,95668.50
2018-12-09T16:49:34.031Z,95679.13
2018-12-09T16:52:04.021Z,95683.20
2018-12-09T16:54:34.169Z,95685.91
2018-12-09T16:57:04.131Z,95704.77
2018-12-09T16:59:34.373Z,95702.95
2018-12-09T17:02:04.545Z,95708.41
2018-12-09T17:04:35.898Z,95703.75
2018-12-09T17:07:05.971Z,95718.06
2018-12-09T17:09:35.998Z,95719.87
2018-12-09T17:12:05.971Z,95726.42
2018-12-09T17:14:36.981Z,95733.87
2018-12-09T17:17:07.058Z,95739.36
2018-12-09T17:19:38.066Z,95758.60
2018-12-09T17:22:08.084Z,95765.94
2018-12-09T17:24:38.088Z,95773.38
2018-12-09T17:27:08.021Z,95779.17
2018-12-09T17:29:37.964Z,95782.22
2018-12-09T17:32:07.955Z,95795.53
2018-12-09T17:34:38.019Z,95797.73
2018-12-09T17:37:07.945Z,95816.95
2018-12-09T17:39:37.965Z,95822.44
2018-12-09T17:42:07.996Z,95821.49
2018-12-09T17:44:37.949Z,95839.78
2018-12-09T17:47:07.900Z,95842.73
2018-12-09T17:49:37.872Z,95850.41
2018-12-09T17:52:07.931Z,95845.70
2018-12-09T17:54:38.943Z,95850.34
2018-12-09T17:57:09.056Z,95849.39
2018-12-09T17:59:38.968Z,95854.64
2018-12-09T18:02:09.709Z,95857.13
2018-12-09T18:04:41.016Z,95859.59
2018-12-09T18:07:11.109Z,95863.41
2018-12-09T18:09:41.104Z,95870.38
2018-12-09T18:12:11.969Z,95878.17
2018-12-09T18:14:42.045Z,95885.13
2018-12-09T18:17:12.113Z,95895.11
2018-12-09T18:19:43.386Z,95903.62
2018-12-09T18:22:13.434Z,95906.53
2018-12-09T18:24:43.638Z,95908.74
2018-12-09T18:27:13.937Z,95910.05
2018-12-09T18:29:44.118Z,95911.57
2018-12-09T18:32:14.216Z,95915.14
2018-12-09T18:34:44.289Z,95922.43
2018-12-09T18:37:14.402Z,95927.58
2018-12-09T18:39:44.692Z,95925.84
2018-12-09T18:42:14.657Z,95939.13
2018-12-09T18:44:44.737Z,95957.73
2018-12-09T18:47:14.969Z,95962.44
2018-12-09T18:49:44.938Z,95958.95
2018-12-09T18:52:15.018Z,95976.67
2018-12-09T18:54:45.009Z,95981.14
2018-12-09T18:57:14.951Z,95992.05
2018-12-09T18:59:45.929Z,95998.14
2018-12-09T19:02:16.031Z,95995.65
2018-12-09T19:04:46.085Z,96006.72
2018-12-09T19:07:16.739Z,96012.13
2018-12-09T19:09:47.546Z,96010.84
2018-12-09T19:12:17.673Z,96023.61
2018-12-09T19:14:47.807Z,96023.06
2018-12-09T19:17:17.759Z,96032.99
2018-12-09T19:19:47.734Z,96042.42
2018-12-09T19:22:17.668Z,96052.41
2018-12-09T19:24:47.645Z,96061.11
2018-12-09T19:27:17.709Z,96067.08
2018-12-09T19:29:47.628Z,96079.95
2018-12-09T19:32:17.750Z,96080.12
2018-12-09T19:34:47.661Z,96091.14
2018-12-09T19:37:17.638Z,96097.77
2018-12-09T19:39:47.561Z,96103.36
2018-12-09T19:42:18.518Z,96110.32
2018-12-09T19:44:48.594Z,96113.20
2018-12-09T19:47:18.563Z,96113.03
2018-12-09T19:49:48.622Z,96126.34
2018-12-09T19:52:18.587Z,96133.25
2018-12-09T19:54:48.573Z,96142.96
2018-12-09T19:57:18.528Z,96142.67
2018-12-09T19:59:48.561Z,96148.33
2018-12-09T20:02:19.150Z,96146.89
2018-12-09T20:04:49.062Z,96152.55
2018-12-09T20:07:19.056Z,96157.47
2018-12-09T20:09:48.968Z,96159.97
2018-12-09T20:12:18.989Z,96172.18
2018-12-09T20:14:49.038Z,96175.19
2018-12-09T20:17:18.976Z,96182.03
2018-12-09T20:19:48.924Z,96184.31
2018-12-09T20:22:18.951Z,96188.39
2018-12-09T20:24:48.872Z,96187.16
2018-12-09T20:27:18.818Z,96198.09
2018-12-09T20:29:48.818Z,96197.34
2018-12-09T20:32:18.941Z,96196.02
2018-12-09T20:34:48.988Z,96198.63
2018-12-09T20:37:18.926Z,96212.73
2018-12-09T20:39:50.019Z,96216.23
2018-12-09T20:42:20.130Z,96223.89
2018-12-09T20:44:50.209Z,96215.91
2018-12-09T20:47:21.622Z,96229.77
2018-12-09T20:49:52.558Z,96244.28
2018-12-09T20:52:22.896Z,96237.86
2018-12-09T20:54:52.804Z,96243.20
2018-12-09T20:57:22.818Z,96244.70
2018-12-09T20:59:52.806Z,96256.39
2018-12-09T21:02:22.851Z,96255.90
2018-12-09T21:04:52.781Z,96254.89
2018-12-09T21:07:22.825Z,96260.42
2018-12-09T21:09:52.769Z,96264.44
2018-12-09T21:12:22.874Z,96268.05
2018-12-09T21:14:52.985Z,96273.95
2018-12-09T21:17:22.989Z,96275.44
2018-12-09T21:19:53.073Z,96277.77
2018-12-09T21:22:23.081Z,96277.19
2018-12-09T21:24:53.217Z,96279.59
2018-12-09T21:27:24.266Z,96271.03
2018-12-09T21:29:54.349Z,96277.48
2018-12-09T21:32:24.405Z,96285.62
2018-12-09T21:34:54.447Z,96300.88
2018-12-09T21:37:24.472Z,96292.71
2018-12-09T21:39:54.386Z,96297.05
2018-12-09T21:42:24.370Z,96305.41
2018-12-09T21:44:54.414Z,96303.19
2018-12-09T21:47:24.390Z,96314.50
2018-12-09T21:49:54.305Z,96322.45
2018-12-09T21:52:24.234Z,96317.63
2018-12-09T21:54:54.184Z,96329.33
2018-12-09T21:57:24.169Z,96342.12
2018-12-09T21:59:54.160Z,96336.19
2018-12-09T22:02:24.082Z,96345.65
2018-12-09T22:04:53.993Z,96334.05
2018-12-09T22:07:24.009Z,96346.17
2018-12-09T22:09:53.957Z,96346.17
2018-12-09T22:12:24.116Z,96341.42
2018-12-09T22:14:54.140Z,96359.98
2018-12-09T22:17:24.069Z,96371.19
2018-12-09T22:19:54.133Z,96383.69
2018-12-09T22:22:25.372Z,96371.69
2018-12-09T22:24:55.283Z,96380.23
2018-12-09T22:27:25.202Z,96395.28
2018-12-09T22:29:55.330Z,96401.41
2018-12-09T22:32:25.307Z,96409.89
2018-12-09T22:34:55.231Z,96417.66
2018-12-09T22:37:25.196Z,96419.37
2018-12-09T22:39:55.172Z,96427.52
2018-12-09T22:42:25.117Z,96439.71
2018-12-09T22:44:55.082Z,96449.52
2018-12-09T22:47:25.040Z,96450.11
2018-12-09T22:49:55.029Z,96448.43
2018-12-09T22:52:25.037Z,96455.59
2018-12-09T22:54:55.040Z,96458.59
2018-12-09T22:57:25.135Z,96453.95
2018-12-09T22:59:55.033Z,96455.60
2018-12-09T23:02:30.484Z,96462.47
2018-12-09T23:05:00.552Z,96464.41
2018-12-09T23:07:36.765Z,96484.36
2018-12-09T23:10:07.397Z,96487.30
2018-12-09T23:12:37.434Z,96489.53
2018-12-09T23:15:07.569Z,96483.55
2018-12-09T23:17:37.577Z,96487.83
2018-12-09T23:20:08.034Z,96488.61
2018-12-09T23:22:38.145Z,96492.73
2018-12-09T23:25:08.283Z,96489.91
2018-12-09T23:27:38.273Z,96502.52
2018-12-09T23:30:10.349Z,96497.26
2018-12-09T23:32:40.343Z,96507.88
2018-12-09T23:35:10.248Z,96512.92
2018-12-09T23:37:40.406Z,96510.00
2018-12-09T23:40:10.529Z,96509.09
2018-12-09T23:42:40.458Z,96514.69
2018-12-09T23:45:10.716Z,96515.92
2018-12-09T23:47:40.739Z,96519.22
2018-12-09T23:50:10.684Z,96514.52
2018-12-09T23:52:40.600Z,96518.73
2018-12-09T23:55:10.660Z,96512.07
2018-12-09T23:57:40.579Z,96512.34
